sensor_id;sensor_type;location;lat;lon;timestamp;pressure;altitude;pressure_sealevel;temperature;humidity
66681;BME280;53575;51.366;12.350;2022-11-23T00:01:11;98990.59;;;3.40;100.00
66681;BME280;53575;51.366;12.350;2022-11-23T00:03:36;98988.88;;;3.49;100.00
66681;BME280;53575;51.366;12.350;2022-11-23T00:06:01;98984.56;;;3.49;100.00
66681;BME280;53575;51.366;12.350;2022-11-23T00:08:27;98985.44;;;3.63;100.00
66681;BME280;53575;51.366;12.350;2022-11-23T00:10:52;98994.03;;;3.42;100.00
66681;BME280;53575;51.366;12.350;2022-11-23T00:13:17;98994.88;;;3.34;100.00
66681;BME280;53575;51.366;12.350;2022-11-23T00:15:42;98987.13;;;3.31;100.00
66681;BME280;53575;51.366;12.350;2022-11-23T00:18:08;98982.88;;;3.51;100.00
66681;BME280;53575;51.366;12.350;2022-11-23T00:20:33;98981.97;;;3.31;100.00
66681;BME280;53575;51.366;12.350;2022-11-23T00:22:58;98984.56;;;3.38;100.00
66681;BME280;53575;51.366;12.350;2022-11-23T00:25:24;98973.38;;;3.53;100.00
66681;BME280;53575;51.366;12.350;2022-11-23T00:27:49;98978.56;;;3.44;100.00
66681;BME280;53575;51.366;12.350;2022-11-23T00:30:14;98976.81;;;3.43;100.00
66681;BME280;53575;51.366;12.350;2022-11-23T00:32:40;98981.13;;;3.50;100.00
66681;BME280;53575;51.366;12.350;2022-11-23T00:35:05;98983.72;;;3.65;100.00
66681;BME280;53575;51.366;12.350;2022-11-23T00:37:31;98981.16;;;3.72;100.00
66681;BME280;53575;51.366;12.350;2022-11-23T00:39:56;98986.28;;;3.70;100.00
66681;BME280;53575;51.366;12.350;2022-11-23T00:42:21;98982.84;;;3.91;100.00
66681;BME280;53575;51.366;12.350;2022-11-23T00:44:46;98985.44;;;3.83;100.00
66681;BME280;53575;51.366;12.350;2022-11-23T00:47:12;98985.44;;;3.96;100.00
66681;BME280;53575;51.366;12.350;2022-11-23T00:49:37;98992.34;;;3.90;100.00
66681;BME280;53575;51.366;12.350;2022-11-23T00:52:02;98982.00;;;4.01;100.00
66681;BME280;53575;51.366;12.350;2022-11-23T00:54:28;98988.84;;;4.11;100.00
66681;BME280;53575;51.366;12.350;2022-11-23T00:56:53;98998.38;;;4.05;100.00
66681;BME280;53575;51.366;12.350;2022-11-23T00:59:18;98992.31;;;4.13;100.00
66681;BME280;53575;51.366;12.350;2022-11-23T01:01:44;99000.94;;;4.14;100.00
66681;BME280;53575;51.366;12.350;2022-11-23T01:04:09;98994.03;;;4.11;100.00
66681;BME280;53575;51.366;12.350;2022-11-23T01:06:35;98990.59;;;4.11;100.00
66681;BME280;53575;51.366;12.350;2022-11-23T01:09:03;98986.28;;;4.07;100.00
66681;BME280;53575;51.366;12.350;2022-11-23T01:11:30;98997.47;;;4.29;100.00
66681;BME280;53575;51.366;12.350;2022-11-23T01:13:55;98992.28;;;4.23;100.00
66681;BME280;53575;51.366;12.350;2022-11-23T01:16:22;98992.31;;;4.21;100.00
66681;BME280;53575;51.366;12.350;2022-11-23T01:18:58;98995.72;;;4.29;100.00
66681;BME280;53575;51.366;12.350;2022-11-23T01:21:24;98998.31;;;4.25;100.00
66681;BME280;53575;51.366;12.350;2022-11-23T01:23:50;98991.44;;;4.22;100.00
66681;BME280;53575;51.366;12.350;2022-11-23T01:26:15;98988.84;;;4.18;100.00
66681;BME280;53575;51.366;12.350;2022-11-23T01:28:41;98983.66;;;4.22;100.00
66681;BME280;53575;51.366;12.350;2022-11-23T01:31:08;98988.00;;;4.12;100.00
66681;BME280;53575;51.366;12.350;2022-11-23T01:33:34;98986.28;;;4.18;100.00
66681;BME280;53575;51.366;12.350;2022-11-23T01:35:59;98991.44;;;4.19;100.00
66681;BME280;53575;51.366;12.350;2022-11-23T01:38:25;98995.72;;;4.29;100.00
66681;BME280;53575;51.366;12.350;2022-11-23T01:40:50;98991.38;;;4.42;100.00
66681;BME280;53575;51.366;12.350;2022-11-23T01:43:16;98993.06;;;4.54;100.00
66681;BME280;53575;51.366;12.350;2022-11-23T01:48:21;99004.31;;;4.45;100.00
66681;BME280;53575;51.366;12.350;2022-11-23T01:50:49;99000.84;;;4.55;100.00
66681;BME280;53575;51.366;12.350;2022-11-23T01:53:15;98999.94;;;4.61;100.00
66681;BME280;53575;51.366;12.350;2022-11-23T01:55:42;99002.50;;;4.69;100.00
66681;BME280;53575;51.366;12.350;2022-11-23T01:58:10;99006.81;;;4.74;100.00
66681;BME280;53575;51.366;12.350;2022-11-23T02:00:36;99004.22;;;4.76;100.00
66681;BME280;53575;51.366;12.350;2022-11-23T02:03:01;98997.38;;;4.59;100.00
66681;BME280;53575;51.366;12.350;2022-11-23T02:05:36;99005.09;;;4.69;100.00
66681;BME280;53575;51.366;12.350;2022-11-23T02:08:04;99005.09;;;4.75;100.00
66681;BME280;53575;51.366;12.350;2022-11-23T02:10:30;99005.97;;;4.71;100.00
66681;BME280;53575;51.366;12.350;2022-11-23T02:12:58;99005.06;;;4.76;100.00
66681;BME280;53575;51.366;12.350;2022-11-23T02:15:24;99002.47;;;4.82;100.00
66681;BME280;53575;51.366;12.350;2022-11-23T02:17:49;99006.78;;;4.82;100.00
66681;BME280;53575;51.366;12.350;2022-11-23T02:20:15;99003.41;;;4.66;100.00
66681;BME280;53575;51.366;12.350;2022-11-23T02:25:12;99009.44;;;4.63;100.00
66681;BME280;53575;51.366;12.350;2022-11-23T02:27:39;99008.59;;;4.57;100.00
66681;BME280;53575;51.366;12.350;2022-11-23T02:30:06;99009.44;;;4.62;100.00
66681;BME280;53575;51.366;12.350;2022-11-23T02:32:31;99005.09;;;4.67;100.00
66681;BME280;53575;51.366;12.350;2022-11-23T02:34:58;99005.13;;;4.61;100.00
66681;BME280;53575;51.366;12.350;2022-11-23T02:37:23;99002.53;;;4.67;100.00
66681;BME280;53575;51.366;12.350;2022-11-23T02:39:50;99004.25;;;4.67;100.00
66681;BME280;53575;51.366;12.350;2022-11-23T02:42:16;99012.03;;;4.60;100.00
66681;BME280;53575;51.366;12.350;2022-11-23T02:44:57;99006.88;;;4.50;100.00
66681;BME280;53575;51.366;12.350;2022-11-23T02:47:24;99006.00;;;4.55;100.00
66681;BME280;53575;51.366;12.350;2022-11-23T02:49:49;99012.00;;;4.71;100.00
66681;BME280;53575;51.366;12.350;2022-11-23T02:52:15;99015.41;;;4.76;100.00
66681;BME280;53575;51.366;12.350;2022-11-23T02:54:41;99007.69;;;4.72;100.00
66681;BME280;53575;51.366;12.350;2022-11-23T02:57:06;99009.31;;;4.91;100.00
66681;BME280;53575;51.366;12.350;2022-11-23T02:59:32;99021.44;;;4.83;100.00
66681;BME280;53575;51.366;12.350;2022-11-23T03:01:58;99015.41;;;4.85;100.00
66681;BME280;53575;51.366;12.350;2022-11-23T03:04:23;99012.81;;;4.79;100.00
66681;BME280;53575;51.366;12.350;2022-11-23T03:06:49;99018.00;;;4.79;100.00
66681;BME280;53575;51.366;12.350;2022-11-23T03:09:14;99015.44;;;4.75;100.00
66681;BME280;53575;51.366;12.350;2022-11-23T03:11:39;99025.81;;;4.61;100.00
66681;BME280;53575;51.366;12.350;2022-11-23T03:14:04;99027.53;;;4.68;100.00
66681;BME280;53575;51.366;12.350;2022-11-23T03:16:30;99027.50;;;4.73;100.00
66681;BME280;53575;51.366;12.350;2022-11-23T03:18:55;99026.69;;;4.63;100.00
66681;BME280;53575;51.366;12.350;2022-11-23T03:21:21;99030.13;;;4.65;100.00
66681;BME280;53575;51.366;12.350;2022-11-23T03:23:46;99036.97;;;4.80;100.00
66681;BME280;53575;51.366;12.350;2022-11-23T03:26:11;99038.69;;;4.88;100.00
66681;BME280;53575;51.366;12.350;2022-11-23T03:28:36;99039.56;;;4.80;100.00
66681;BME280;53575;51.366;12.350;2022-11-23T03:31:02;99040.38;;;4.97;100.00
66681;BME280;53575;51.366;12.350;2022-11-23T03:33:27;99022.31;;;4.85;100.00
66681;BME280;53575;51.366;12.350;2022-11-23T03:35:53;99037.81;;;4.88;100.00
66681;BME280;53575;51.366;12.350;2022-11-23T03:38:18;99038.69;;;4.87;100.00
66681;BME280;53575;51.366;12.350;2022-11-23T03:40:44;99037.84;;;4.85;100.00
66681;BME280;53575;51.366;12.350;2022-11-23T03:43:10;99035.16;;;5.03;100.00
66681;BME280;53575;51.366;12.350;2022-11-23T03:45:35;99034.28;;;5.12;100.00
66681;BME280;53575;51.366;12.350;2022-11-23T03:48:01;99031.69;;;5.12;100.00
66681;BME280;53575;51.366;12.350;2022-11-23T03:50:26;99035.03;;;5.26;100.00
66681;BME280;53575;51.366;12.350;2022-11-23T03:52:53;99032.44;;;5.31;100.00
66681;BME280;53575;51.366;12.350;2022-11-23T03:55:19;99041.13;;;5.21;100.00
66681;BME280;53575;51.366;12.350;2022-11-23T03:57:46;99039.38;;;5.27;100.00
66681;BME280;53575;51.366;12.350;2022-11-23T04:00:11;99038.53;;;5.18;100.00
66681;BME280;53575;51.366;12.350;2022-11-23T04:02:36;99036.84;;;5.07;100.00
66681;BME280;53575;51.366;12.350;2022-11-23T04:05:02;99041.22;;;4.98;100.00
66681;BME280;53575;51.366;12.350;2022-11-23T04:07:27;99043.88;;;4.88;100.00
66681;BME280;53575;51.366;12.350;2022-11-23T04:09:52;99043.06;;;4.65;100.00
66681;BME280;53575;51.366;12.350;2022-11-23T04:12:18;99044.81;;;4.60;100.00
66681;BME280;53575;51.366;12.350;2022-11-23T04:14:43;99040.53;;;4.42;100.00
66681;BME280;53575;51.366;12.350;2022-11-23T04:17:08;99044.84;;;4.23;100.00
66681;BME280;53575;51.366;12.350;2022-11-23T04:19:33;99050.03;;;4.14;100.00
66681;BME280;53575;51.366;12.350;2022-11-23T04:21:59;99050.91;;;4.11;100.00
66681;BME280;53575;51.366;12.350;2022-11-23T04:24:24;99044.88;;;4.17;100.00
66681;BME280;53575;51.366;12.350;2022-11-23T04:26:49;99042.25;;;4.40;100.00
66681;BME280;53575;51.366;12.350;2022-11-23T04:29:15;99040.47;;;4.60;100.00
66681;BME280;53575;51.366;12.350;2022-11-23T04:31:40;99033.63;;;4.47;100.00
66681;BME280;53575;51.366;12.350;2022-11-23T04:34:05;99036.19;;;4.53;100.00
66681;BME280;53575;51.366;12.350;2022-11-23T04:36:30;99033.63;;;4.55;100.00
66681;BME280;53575;51.366;12.350;2022-11-23T04:38:57;99038.78;;;4.53;100.00
66681;BME280;53575;51.366;12.350;2022-11-23T04:41:22;99037.94;;;4.42;100.00
66681;BME280;53575;51.366;12.350;2022-11-23T04:43:48;99034.53;;;4.35;100.00
66681;BME280;53575;51.366;12.350;2022-11-23T04:46:14;99040.56;;;4.31;100.00
66681;BME280;53575;51.366;12.350;2022-11-23T04:48:40;99037.97;;;4.18;100.00
66681;BME280;53575;51.366;12.350;2022-11-23T04:51:05;99036.25;;;4.26;100.00
66681;BME280;53575;51.366;12.350;2022-11-23T04:53:31;99028.47;;;4.30;100.00
66681;BME280;53575;51.366;12.350;2022-11-23T04:55:56;99033.69;;;4.06;100.00
66681;BME280;53575;51.366;12.350;2022-11-23T04:58:22;99026.78;;;4.02;100.00
66681;BME280;53575;51.366;12.350;2022-11-23T05:00:47;99037.13;;;4.02;100.00
66681;BME280;53575;51.366;12.350;2022-11-23T05:03:12;99034.56;;;3.86;100.00
66681;BME280;53575;51.366;12.350;2022-11-23T05:05:38;99037.13;;;3.76;100.00
66681;BME280;53575;51.366;12.350;2022-11-23T05:08:03;99040.53;;;3.62;100.00
66681;BME280;53575;51.366;12.350;2022-11-23T05:10:29;99038.81;;;3.58;100.00
66681;BME280;53575;51.366;12.350;2022-11-23T05:12:54;99034.53;;;3.59;100.00
66681;BME280;53575;51.366;12.350;2022-11-23T05:15:19;99032.78;;;3.52;100.00
66681;BME280;53575;51.366;12.350;2022-11-23T05:17:45;99039.72;;;3.66;100.00
66681;BME280;53575;51.366;12.350;2022-11-23T05:20:10;99039.69;;;3.51;100.00
66681;BME280;53575;51.366;12.350;2022-11-23T05:22:35;99038.81;;;3.49;100.00
66681;BME280;53575;51.366;12.350;2022-11-23T05:25:01;99039.66;;;3.40;100.00
66681;BME280;53575;51.366;12.350;2022-11-23T05:27:26;99037.06;;;3.40;100.00
66681;BME280;53575;51.366;12.350;2022-11-23T05:29:52;99029.28;;;3.31;100.00
66681;BME280;53575;51.366;12.350;2022-11-23T05:32:17;99028.41;;;3.20;100.00
66681;BME280;53575;51.366;12.350;2022-11-23T05:34:43;99025.00;;;3.26;100.00
66681;BME280;53575;51.366;12.350;2022-11-23T05:37:08;99024.09;;;3.13;100.00
66681;BME280;53575;51.366;12.350;2022-11-23T05:39:33;99028.38;;;3.12;100.00
66681;BME280;53575;51.366;12.350;2022-11-23T05:41:59;99030.06;;;3.00;100.00
66681;BME280;53575;51.366;12.350;2022-11-23T05:44:25;99034.31;;;2.90;100.00
66681;BME280;53575;51.366;12.350;2022-11-23T05:46:50;99037.72;;;2.81;100.00
66681;BME280;53575;51.366;12.350;2022-11-23T05:49:15;99035.16;;;2.80;100.00
66681;BME280;53575;51.366;12.350;2022-11-23T05:51:41;99034.31;;;2.88;100.00
66681;BME280;53575;51.366;12.350;2022-11-23T05:54:06;99037.72;;;2.81;100.00
66681;BME280;53575;51.366;12.350;2022-11-23T05:56:31;99036.84;;;2.76;100.00
66681;BME280;53575;51.366;12.350;2022-11-23T05:58:56;99039.41;;;2.70;100.00
66681;BME280;53575;51.366;12.350;2022-11-23T06:01:22;99044.53;;;2.67;100.00
66681;BME280;53575;51.366;12.350;2022-11-23T06:03:50;99045.44;;;2.72;100.00
66681;BME280;53575;51.366;12.350;2022-11-23T06:06:15;99041.09;;;2.66;100.00
66681;BME280;53575;51.366;12.350;2022-11-23T06:08:40;99041.09;;;2.63;100.00
66681;BME280;53575;51.366;12.350;2022-11-23T06:11:06;99041.09;;;2.60;100.00
66681;BME280;53575;51.366;12.350;2022-11-23T06:13:31;99041.91;;;2.58;100.00
66681;BME280;53575;51.366;12.350;2022-11-23T06:15:56;99040.16;;;2.55;100.00
66681;BME280;53575;51.366;12.350;2022-11-23T06:18:22;99039.34;;;2.59;100.00
66681;BME280;53575;51.366;12.350;2022-11-23T06:20:47;99038.59;;;2.79;100.00
66681;BME280;53575;51.366;12.350;2022-11-23T06:23:12;99039.47;;;2.84;100.00
66681;BME280;53575;51.366;12.350;2022-11-23T06:25:37;99037.84;;;3.07;100.00
66681;BME280;53575;51.366;12.350;2022-11-23T06:28:03;99039.63;;;3.28;100.00
66681;BME280;53575;51.366;12.350;2022-11-23T06:30:29;99046.53;;;3.32;100.00
66681;BME280;53575;51.366;12.350;2022-11-23T06:32:54;99054.19;;;3.11;100.00
66681;BME280;53575;51.366;12.350;2022-11-23T06:35:20;99044.72;;;3.11;100.00
66681;BME280;53575;51.366;12.350;2022-11-23T06:37:49;99053.28;;;3.01;100.00
66681;BME280;53575;51.366;12.350;2022-11-23T06:40:14;99053.31;;;3.09;100.00
66681;BME280;53575;51.366;12.350;2022-11-23T06:42:40;99057.66;;;3.14;100.00
66681;BME280;53575;51.366;12.350;2022-11-23T06:45:07;99060.22;;;3.16;100.00
66681;BME280;53575;51.366;12.350;2022-11-23T06:47:32;99053.38;;;3.18;100.00
66681;BME280;53575;51.366;12.350;2022-11-23T06:49:57;99057.72;;;3.33;100.00
66681;BME280;53575;51.366;12.350;2022-11-23T06:52:23;99061.16;;;3.38;100.00
66681;BME280;53575;51.366;12.350;2022-11-23T06:54:48;99058.53;;;3.24;100.00
66681;BME280;53575;51.366;12.350;2022-11-23T06:57:14;99068.03;;;3.25;100.00
66681;BME280;53575;51.366;12.350;2022-11-23T06:59:41;99063.75;;;3.33;100.00
66681;BME280;53575;51.366;12.350;2022-11-23T07:02:07;99064.56;;;3.28;100.00
66681;BME280;53575;51.366;12.350;2022-11-23T07:04:33;99069.75;;;3.35;100.00
66681;BME280;53575;51.366;12.350;2022-11-23T07:07:00;99071.44;;;3.21;100.00
66681;BME280;53575;51.366;12.350;2022-11-23T07:09:25;99067.94;;;3.08;100.00
66681;BME280;53575;51.366;12.350;2022-11-23T07:11:50;99071.34;;;3.00;100.00
66681;BME280;53575;51.366;12.350;2022-11-23T07:14:16;99072.16;;;2.89;100.00
66681;BME280;53575;51.366;12.350;2022-11-23T07:16:41;99072.09;;;2.77;100.00
66681;BME280;53575;51.366;12.350;2022-11-23T07:19:06;99072.16;;;2.83;100.00
66681;BME280;53575;51.366;12.350;2022-11-23T07:21:32;99077.31;;;2.85;100.00
66681;BME280;53575;51.366;12.350;2022-11-23T07:23:57;99074.81;;;3.03;100.00
66681;BME280;53575;51.366;12.350;2022-11-23T07:26:22;99071.38;;;3.04;100.00
66681;BME280;53575;51.366;12.350;2022-11-23T07:28:48;99081.63;;;2.87;100.00
66681;BME280;53575;51.366;12.350;2022-11-23T07:31:13;99086.81;;;2.90;100.00
66681;BME280;53575;51.366;12.350;2022-11-23T07:33:43;99076.47;;;2.92;100.00
66681;BME280;53575;51.366;12.350;2022-11-23T07:36:09;99075.59;;;2.84;100.00
66681;BME280;53575;51.366;12.350;2022-11-23T07:38:34;99083.31;;;2.82;100.00
66681;BME280;53575;51.366;12.350;2022-11-23T07:41:00;99077.31;;;2.83;100.00
66681;BME280;53575;51.366;12.350;2022-11-23T07:43:27;99084.31;;;3.16;100.00
66681;BME280;53575;51.366;12.350;2022-11-23T07:45:54;99092.09;;;3.18;100.00
66681;BME280;53575;51.366;12.350;2022-11-23T07:48:19;99073.13;;;3.05;100.00
66681;BME280;53575;51.366;12.350;2022-11-23T07:50:45;99087.78;;;3.18;100.00
66681;BME280;53575;51.366;12.350;2022-11-23T07:53:10;99088.59;;;3.11;100.00
66681;BME280;53575;51.366;12.350;2022-11-23T07:55:35;99087.75;;;3.11;100.00
66681;BME280;53575;51.366;12.350;2022-11-23T07:58:01;99089.47;;;3.12;100.00
66681;BME280;53575;51.366;12.350;2022-11-23T08:00:27;99092.03;;;3.07;100.00
66681;BME280;53575;51.366;12.350;2022-11-23T08:02:53;99092.91;;;3.08;100.00
66681;BME280;53575;51.366;12.350;2022-11-23T08:05:18;99104.09;;;3.05;100.00
66681;BME280;53575;51.366;12.350;2022-11-23T08:07:43;99099.78;;;3.07;100.00
66681;BME280;53575;51.366;12.350;2022-11-23T08:10:09;99098.94;;;3.11;100.00
66681;BME280;53575;51.366;12.350;2022-11-23T08:12:35;99104.13;;;3.13;100.00
66681;BME280;53575;51.366;12.350;2022-11-23T08:15:00;99105.84;;;3.18;100.00
66681;BME280;53575;51.366;12.350;2022-11-23T08:17:27;99104.16;;;3.27;100.00
66681;BME280;53575;51.366;12.350;2022-11-23T08:19:52;99105.03;;;3.30;100.00
66681;BME280;53575;51.366;12.350;2022-11-23T08:22:17;99111.06;;;3.35;100.00
66681;BME280;53575;51.366;12.350;2022-11-23T08:24:43;99111.09;;;3.46;100.00
66681;BME280;53575;51.366;12.350;2022-11-23T08:27:08;99112.94;;;3.91;100.00
66681;BME280;53575;51.366;12.350;2022-11-23T08:29:33;99108.66;;;4.06;100.00
66681;BME280;53575;51.366;12.350;2022-11-23T08:31:59;99113.81;;;4.10;100.00
66681;BME280;53575;51.366;12.350;2022-11-23T08:34:24;99096.56;;;4.23;100.00
66681;BME280;53575;51.366;12.350;2022-11-23T08:36:49;99109.50;;;4.37;100.00
66681;BME280;53575;51.366;12.350;2022-11-23T08:39:15;99106.91;;;4.31;100.00
66681;BME280;53575;51.366;12.350;2022-11-23T08:41:41;99098.31;;;4.33;100.00
66681;BME280;53575;51.366;12.350;2022-11-23T08:44:06;99110.34;;;4.45;100.00
66681;BME280;53575;51.366;12.350;2022-11-23T08:46:36;99106.91;;;4.63;100.00
66681;BME280;53575;51.366;12.350;2022-11-23T08:49:02;99116.41;;;4.55;100.00
66681;BME280;53575;51.366;12.350;2022-11-23T08:51:27;99112.03;;;4.80;100.00
66681;BME280;53575;51.366;12.350;2022-11-23T08:53:53;99111.16;;;4.87;100.00
66681;BME280;53575;51.366;12.350;2022-11-23T08:56:18;99107.69;;;4.94;100.00
66681;BME280;53575;51.366;12.350;2022-11-23T08:58:44;99111.16;;;4.96;100.00
66681;BME280;53575;51.366;12.350;2022-11-23T09:01:12;99116.25;;;5.07;100.00
66681;BME280;53575;51.366;12.350;2022-11-23T09:03:38;99115.44;;;5.05;100.00
66681;BME280;53575;51.366;12.350;2022-11-23T09:06:03;99116.25;;;5.16;100.00
66681;BME280;53575;51.366;12.350;2022-11-23T09:08:29;99114.53;;;5.10;100.00
66681;BME280;53575;51.366;12.350;2022-11-23T09:10:58;99111.91;;;5.27;100.00
66681;BME280;53575;51.366;12.350;2022-11-23T09:13:23;99104.97;;;5.32;100.00
66681;BME280;53575;51.366;12.350;2022-11-23T09:15:49;99120.47;;;5.38;100.00
66681;BME280;53575;51.366;12.350;2022-11-23T09:18:14;99117.84;;;5.45;100.00
66681;BME280;53575;51.366;12.350;2022-11-23T09:20:39;99124.66;;;5.66;100.00
66681;BME280;53575;51.366;12.350;2022-11-23T09:23:05;99120.19;;;5.87;100.00
66681;BME280;53575;51.366;12.350;2022-11-23T09:25:30;99124.50;;;5.92;100.00
66681;BME280;53575;51.366;12.350;2022-11-23T09:27:56;99121.78;;;6.13;100.00
66681;BME280;53575;51.366;12.350;2022-11-23T09:30:22;99131.25;;;6.20;99.92
66681;BME280;53575;51.366;12.350;2022-11-23T09:32:47;99129.28;;;6.48;98.18
66681;BME280;53575;51.366;12.350;2022-11-23T09:35:13;99123.09;;;6.63;96.80
66681;BME280;53575;51.366;12.350;2022-11-23T09:37:38;99116.81;;;6.87;95.40
66681;BME280;53575;51.366;12.350;2022-11-23T09:40:03;99111.41;;;7.05;94.06
66681;BME280;53575;51.366;12.350;2022-11-23T09:42:38;99113.91;;;7.13;93.74
66681;BME280;53575;51.366;12.350;2022-11-23T09:53:12;99121.31;;;7.48;92.00
66681;BME280;53575;51.366;12.350;2022-11-23T09:55:43;99120.25;;;7.62;90.75
66681;BME280;53575;51.366;12.350;2022-11-23T09:58:13;99119.31;;;7.67;90.21
66681;BME280;53575;51.366;12.350;2022-11-23T10:00:43;99110.53;;;7.74;89.65
66681;BME280;53575;51.366;12.350;2022-11-23T10:03:12;99107.81;;;7.84;89.31
66681;BME280;53575;51.366;12.350;2022-11-23T10:05:38;99108.72;;;7.82;89.76
66681;BME280;53575;51.366;12.350;2022-11-23T10:08:15;99105.94;;;7.93;89.33
66681;BME280;53575;51.366;12.350;2022-11-23T10:10:43;99111.81;;;8.06;88.51
66681;BME280;53575;51.366;12.350;2022-11-23T10:13:13;99107.47;;;8.06;89.29
66681;BME280;53575;51.366;12.350;2022-11-23T10:23:55;99107.53;;;8.03;88.20
66681;BME280;53575;51.366;12.350;2022-11-23T10:26:33;99106.59;;;8.09;88.04
66681;BME280;53575;51.366;12.350;2022-11-23T10:31:37;99098.78;;;8.09;88.78
66681;BME280;53575;51.366;12.350;2022-11-23T10:34:12;99103.88;;;8.17;87.29
66681;BME280;53575;51.366;12.350;2022-11-23T10:36:38;99101.09;;;8.26;87.58
66681;BME280;53575;51.366;12.350;2022-11-23T10:39:13;99096.88;;;8.19;86.31
66681;BME280;53575;51.366;12.350;2022-11-23T10:41:40;99091.75;;;8.13;86.72
66681;BME280;53575;51.366;12.350;2022-11-23T10:44:11;99091.63;;;8.20;86.53
66681;BME280;53575;51.366;12.350;2022-11-23T10:46:43;99084.59;;;8.28;86.62
66681;BME280;53575;51.366;12.350;2022-11-23T10:49:12;99081.13;;;8.26;86.33
66681;BME280;53575;51.366;12.350;2022-11-23T10:51:39;99091.41;;;8.37;86.49
66681;BME280;53575;51.366;12.350;2022-11-23T10:54:16;99082.34;;;8.58;84.37
66681;BME280;53575;51.366;12.350;2022-11-23T10:56:45;99077.38;;;8.46;84.81
66681;BME280;53575;51.366;12.350;2022-11-23T10:59:16;99082.47;;;8.50;84.19
66681;BME280;53575;51.366;12.350;2022-11-23T11:01:59;99086.13;;;8.42;84.90
66681;BME280;53575;51.366;12.350;2022-11-23T11:04:26;99087.13;;;8.31;84.83
66681;BME280;53575;51.366;12.350;2022-11-23T11:06:51;99086.59;;;8.11;85.84
66681;BME280;53575;51.366;12.350;2022-11-23T11:09:33;99088.38;;;8.09;86.39
66681;BME280;53575;51.366;12.350;2022-11-23T11:11:58;99089.91;;;8.21;86.38
66681;BME280;53575;51.366;12.350;2022-11-23T11:14:24;99088.94;;;8.28;85.28
66681;BME280;53575;51.366;12.350;2022-11-23T11:16:50;99082.66;;;8.41;85.11
66681;BME280;53575;51.366;12.350;2022-11-23T11:21:50;99084.41;;;8.41;86.08
66681;BME280;53575;51.366;12.350;2022-11-23T11:24:17;99079.75;;;8.58;84.52
66681;BME280;53575;51.366;12.350;2022-11-23T11:27:27;99077.94;;;8.63;83.91
66681;BME280;53575;51.366;12.350;2022-11-23T11:29:45;99078.63;;;8.73;83.90
66681;BME280;53575;51.366;12.350;2022-11-23T11:32:56;99076.00;;;8.73;84.17
66681;BME280;53575;51.366;12.350;2022-11-23T11:35:13;99065.19;;;8.94;84.17
66681;BME280;53575;51.366;12.350;2022-11-23T11:37:44;99073.63;;;9.07;82.93
66681;BME280;53575;51.366;12.350;2022-11-23T11:45:35;99071.19;;;8.98;81.87
66681;BME280;53575;51.366;12.350;2022-11-23T11:48:09;99068.00;;;8.84;82.69
66681;BME280;53575;51.366;12.350;2022-11-23T11:50:56;99068.94;;;8.79;83.61
66681;BME280;53575;51.366;12.350;2022-11-23T11:53:23;99071.66;;;8.75;83.64
66681;BME280;53575;51.366;12.350;2022-11-23T11:55:54;99070.34;;;8.51;85.38
66681;BME280;53575;51.366;12.350;2022-11-23T11:58:21;99069.03;;;8.75;84.89
66681;BME280;53575;51.366;12.350;2022-11-23T12:00:47;99067.97;;;8.85;84.50
66681;BME280;53575;51.366;12.350;2022-11-23T12:03:19;99073.25;;;8.81;84.73
66681;BME280;53575;51.366;12.350;2022-11-23T12:05:48;99071.31;;;8.92;83.48
66681;BME280;53575;51.366;12.350;2022-11-23T12:13:17;99069.78;;;8.82;85.48
66681;BME280;53575;51.366;12.350;2022-11-23T12:15:44;99066.16;;;8.90;84.61
66681;BME280;53575;51.366;12.350;2022-11-23T12:23:39;99060.31;;;9.21;83.45
66681;BME280;53575;51.366;12.350;2022-11-23T12:26:16;99063.31;;;8.56;86.09
66681;BME280;53575;51.366;12.350;2022-11-23T12:29:06;99066.34;;;8.79;86.73
66681;BME280;53575;51.366;12.350;2022-11-23T12:31:44;99056.44;;;8.98;84.73
66681;BME280;53575;51.366;12.350;2022-11-23T12:39:38;99066.44;;;9.18;83.43
66681;BME280;53575;51.366;12.350;2022-11-23T12:42:12;99063.13;;;9.10;83.95
66681;BME280;53575;51.366;12.350;2022-11-23T12:47:44;99057.91;;;9.52;82.06
66681;BME280;53575;51.366;12.350;2022-11-23T12:50:23;99056.94;;;9.56;82.14
66681;BME280;53575;51.366;12.350;2022-11-23T12:57:48;99052.06;;;8.99;84.13
66681;BME280;53575;51.366;12.350;2022-11-23T13:00:19;99054.25;;;9.19;84.38
66681;BME280;53575;51.366;12.350;2022-11-23T13:18:09;99057.53;;;8.87;87.14
66681;BME280;53575;51.366;12.350;2022-11-23T13:23:33;99057.72;;;9.19;85.71
66681;BME280;53575;51.366;12.350;2022-11-23T13:26:11;99062.53;;;9.39;83.96
66681;BME280;53575;51.366;12.350;2022-11-23T13:28:38;99050.75;;;9.62;83.21
66681;BME280;53575;51.366;12.350;2022-11-23T13:31:16;99055.09;;;9.61;82.78
66681;BME280;53575;51.366;12.350;2022-11-23T13:33:42;99056.66;;;9.68;83.08
66681;BME280;53575;51.366;12.350;2022-11-23T13:36:09;99047.78;;;9.77;82.47
66681;BME280;53575;51.366;12.350;2022-11-23T13:38:36;99056.50;;;9.76;82.53
66681;BME280;53575;51.366;12.350;2022-11-23T13:41:02;99054.91;;;9.70;82.00
66681;BME280;53575;51.366;12.350;2022-11-23T13:43:34;99049.06;;;9.58;82.28
66681;BME280;53575;51.366;12.350;2022-11-23T13:48:41;99041.53;;;9.47;83.02
66681;BME280;53575;51.366;12.350;2022-11-23T13:51:07;99044.19;;;9.42;83.81
66681;BME280;53575;51.366;12.350;2022-11-23T13:53:34;99052.00;;;9.44;83.32
66681;BME280;53575;51.366;12.350;2022-11-23T13:58:48;99043.59;;;9.31;83.30
66681;BME280;53575;51.366;12.350;2022-11-23T14:01:19;99055.16;;;9.18;84.05
66681;BME280;53575;51.366;12.350;2022-11-23T14:04:17;99039.78;;;9.04;84.74
66681;BME280;53575;51.366;12.350;2022-11-23T14:06:47;99046.09;;;8.92;85.34
66681;BME280;53575;51.366;12.350;2022-11-23T14:12:07;99038.81;;;8.66;86.55
66681;BME280;53575;51.366;12.350;2022-11-23T14:17:16;99049.44;;;8.54;87.82